sensor_id;sensor_type;location;lat;lon;timestamp;P1;durP1;ratioP1;P2;durP2;ratioP2
70052;SDS011;57398;52.032;4.376;2023-06-22T00:00:58;15.00;;;6.57;;
70052;SDS011;57398;52.032;4.376;2023-06-22T00:03:48;13.55;;;6.07;;
70052;SDS011;57398;52.032;4.376;2023-06-22T00:06:37;13.82;;;6.30;;
70052;SDS011;57398;52.032;4.376;2023-06-22T00:09:25;14.10;;;6.53;;
70052;SDS011;57398;52.032;4.376;2023-06-22T00:12:13;12.57;;;6.00;;
70052;SDS011;57398;52.032;4.376;2023-06-22T00:15:01;13.73;;;6.18;;
70052;SDS011;57398;52.032;4.376;2023-06-22T00:17:50;13.93;;;6.30;;
70052;SDS011;57398;52.032;4.376;2023-06-22T00:20:41;14.35;;;6.68;;
70052;SDS011;57398;52.032;4.376;2023-06-22T00:23:29;15.33;;;7.17;;
70052;SDS011;57398;52.032;4.376;2023-06-22T00:26:21;14.57;;;6.75;;
70052;SDS011;57398;52.032;4.376;2023-06-22T00:29:09;15.85;;;6.78;;
70052;SDS011;57398;52.032;4.376;2023-06-22T00:31:57;13.43;;;6.28;;
70052;SDS011;57398;52.032;4.376;2023-06-22T00:34:45;15.85;;;6.88;;
70052;SDS011;57398;52.032;4.376;2023-06-22T00:37:35;15.23;;;7.10;;
70052;SDS011;57398;52.032;4.376;2023-06-22T00:40:23;15.18;;;6.85;;
70052;SDS011;57398;52.032;4.376;2023-06-22T00:43:11;17.60;;;7.43;;
70052;SDS011;57398;52.032;4.376;2023-06-22T00:45:59;20.25;;;8.43;;
70052;SDS011;57398;52.032;4.376;2023-06-22T00:48:47;22.42;;;9.80;;
70052;SDS011;57398;52.032;4.376;2023-06-22T00:51:36;23.63;;;9.60;;
70052;SDS011;57398;52.032;4.376;2023-06-22T00:54:26;27.23;;;10.25;;
70052;SDS011;57398;52.032;4.376;2023-06-22T00:57:15;23.15;;;10.07;;
70052;SDS011;57398;52.032;4.376;2023-06-22T01:00:05;22.80;;;10.35;;
70052;SDS011;57398;52.032;4.376;2023-06-22T01:02:56;22.58;;;9.35;;
70052;SDS011;57398;52.032;4.376;2023-06-22T01:05:44;22.90;;;9.93;;
70052;SDS011;57398;52.032;4.376;2023-06-22T01:08:38;25.48;;;10.93;;
70052;SDS011;57398;52.032;4.376;2023-06-22T01:11:34;24.52;;;10.27;;
70052;SDS011;57398;52.032;4.376;2023-06-22T01:14:39;26.27;;;10.90;;
70052;SDS011;57398;52.032;4.376;2023-06-22T01:17:31;23.10;;;10.25;;
70052;SDS011;57398;52.032;4.376;2023-06-22T01:20:20;25.93;;;11.00;;
70052;SDS011;57398;52.032;4.376;2023-06-22T01:23:10;29.10;;;12.00;;
70052;SDS011;57398;52.032;4.376;2023-06-22T01:26:02;27.23;;;12.07;;
70052;SDS011;57398;52.032;4.376;2023-06-22T01:28:55;29.33;;;12.13;;
70052;SDS011;57398;52.032;4.376;2023-06-22T01:31:45;31.42;;;12.80;;
70052;SDS011;57398;52.032;4.376;2023-06-22T01:34:35;36.40;;;14.53;;
70052;SDS011;57398;52.032;4.376;2023-06-22T01:37:26;33.30;;;13.45;;
70052;SDS011;57398;52.032;4.376;2023-06-22T01:40:16;34.15;;;13.82;;
70052;SDS011;57398;52.032;4.376;2023-06-22T01:43:04;32.75;;;13.77;;
70052;SDS011;57398;52.032;4.376;2023-06-22T01:45:54;36.40;;;15.25;;
70052;SDS011;57398;52.032;4.376;2023-06-22T01:48:43;34.90;;;14.33;;
70052;SDS011;57398;52.032;4.376;2023-06-22T01:51:32;40.58;;;15.98;;
70052;SDS011;57398;52.032;4.376;2023-06-22T01:54:21;34.78;;;14.25;;
70052;SDS011;57398;52.032;4.376;2023-06-22T01:57:09;38.25;;;15.48;;
70052;SDS011;57398;52.032;4.376;2023-06-22T01:59:59;34.17;;;14.57;;
70052;SDS011;57398;52.032;4.376;2023-06-22T02:02:52;35.67;;;14.37;;
70052;SDS011;57398;52.032;4.376;2023-06-22T02:05:46;33.03;;;12.88;;
70052;SDS011;57398;52.032;4.376;2023-06-22T02:08:37;32.97;;;13.55;;
70052;SDS011;57398;52.032;4.376;2023-06-22T02:11:29;27.33;;;12.20;;
70052;SDS011;57398;52.032;4.376;2023-06-22T02:14:18;31.45;;;13.80;;
70052;SDS011;57398;52.032;4.376;2023-06-22T02:17:08;32.20;;;13.10;;
70052;SDS011;57398;52.032;4.376;2023-06-22T02:19:58;33.95;;;13.60;;
70052;SDS011;57398;52.032;4.376;2023-06-22T02:22:46;33.00;;;12.98;;
70052;SDS011;57398;52.032;4.376;2023-06-22T02:25:35;33.45;;;13.25;;
70052;SDS011;57398;52.032;4.376;2023-06-22T02:28:23;33.25;;;12.80;;
70052;SDS011;57398;52.032;4.376;2023-06-22T02:31:11;39.07;;;14.50;;
70052;SDS011;57398;52.032;4.376;2023-06-22T02:33:59;40.80;;;14.65;;
70052;SDS011;57398;52.032;4.376;2023-06-22T02:36:49;42.85;;;15.70;;
70052;SDS011;57398;52.032;4.376;2023-06-22T02:39:38;37.22;;;14.50;;
70052;SDS011;57398;52.032;4.376;2023-06-22T02:42:26;39.05;;;15.80;;
70052;SDS011;57398;52.032;4.376;2023-06-22T02:45:15;37.47;;;14.43;;
70052;SDS011;57398;52.032;4.376;2023-06-22T02:48:03;35.75;;;14.82;;
70052;SDS011;57398;52.032;4.376;2023-06-22T02:50:51;38.65;;;15.68;;
70052;SDS011;57398;52.032;4.376;2023-06-22T02:53:41;37.00;;;14.95;;
70052;SDS011;57398;52.032;4.376;2023-06-22T02:56:31;36.92;;;14.88;;
70052;SDS011;57398;52.032;4.376;2023-06-22T02:59:19;40.47;;;15.73;;
70052;SDS011;57398;52.032;4.376;2023-06-22T03:02:10;37.90;;;15.18;;
70052;SDS011;57398;52.032;4.376;2023-06-22T03:04:58;36.70;;;14.77;;
70052;SDS011;57398;52.032;4.376;2023-06-22T03:07:47;35.35;;;13.40;;
70052;SDS011;57398;52.032;4.376;2023-06-22T03:10:37;37.15;;;15.23;;
70052;SDS011;57398;52.032;4.376;2023-06-22T03:13:26;37.07;;;14.77;;
70052;SDS011;57398;52.032;4.376;2023-06-22T03:16:14;34.97;;;13.50;;
70052;SDS011;57398;52.032;4.376;2023-06-22T03:19:02;40.72;;;16.15;;
70052;SDS011;57398;52.032;4.376;2023-06-22T03:21:51;42.42;;;16.77;;
70052;SDS011;57398;52.032;4.376;2023-06-22T03:24:39;42.58;;;16.92;;
70052;SDS011;57398;52.032;4.376;2023-06-22T03:27:28;42.43;;;15.13;;
70052;SDS011;57398;52.032;4.376;2023-06-22T03:30:17;41.00;;;15.82;;
70052;SDS011;57398;52.032;4.376;2023-06-22T03:33:05;47.85;;;18.20;;
70052;SDS011;57398;52.032;4.376;2023-06-22T03:35:53;46.17;;;18.08;;
70052;SDS011;57398;52.032;4.376;2023-06-22T03:38:41;43.33;;;16.25;;
70052;SDS011;57398;52.032;4.376;2023-06-22T03:41:29;45.47;;;16.23;;
70052;SDS011;57398;52.032;4.376;2023-06-22T03:44:19;37.43;;;16.47;;
70052;SDS011;57398;52.032;4.376;2023-06-22T03:47:08;42.30;;;16.20;;
70052;SDS011;57398;52.032;4.376;2023-06-22T03:49:56;48.85;;;16.52;;
70052;SDS011;57398;52.032;4.376;2023-06-22T03:52:44;50.35;;;18.02;;
70052;SDS011;57398;52.032;4.376;2023-06-22T03:55:33;47.20;;;16.75;;
70052;SDS011;57398;52.032;4.376;2023-06-22T03:58:22;48.73;;;17.93;;
70052;SDS011;57398;52.032;4.376;2023-06-22T04:01:12;46.95;;;17.92;;
70052;SDS011;57398;52.032;4.376;2023-06-22T04:04:00;50.38;;;17.92;;
70052;SDS011;57398;52.032;4.376;2023-06-22T04:06:48;47.92;;;18.45;;
70052;SDS011;57398;52.032;4.376;2023-06-22T04:09:36;48.75;;;18.33;;
70052;SDS011;57398;52.032;4.376;2023-06-22T04:12:25;49.87;;;19.20;;
70052;SDS011;57398;52.032;4.376;2023-06-22T04:15:13;48.92;;;19.20;;
70052;SDS011;57398;52.032;4.376;2023-06-22T04:18:03;51.40;;;18.70;;
70052;SDS011;57398;52.032;4.376;2023-06-22T04:20:51;46.13;;;17.63;;
70052;SDS011;57398;52.032;4.376;2023-06-22T04:23:39;45.78;;;17.27;;
70052;SDS011;57398;52.032;4.376;2023-06-22T04:26:28;44.90;;;17.83;;
70052;SDS011;57398;52.032;4.376;2023-06-22T04:29:16;39.28;;;16.55;;
70052;SDS011;57398;52.032;4.376;2023-06-22T04:32:04;46.60;;;17.77;;
70052;SDS011;57398;52.032;4.376;2023-06-22T04:34:55;50.22;;;19.52;;
70052;SDS011;57398;52.032;4.376;2023-06-22T04:37:43;44.28;;;17.85;;
70052;SDS011;57398;52.032;4.376;2023-06-22T04:40:34;47.10;;;18.30;;
70052;SDS011;57398;52.032;4.376;2023-06-22T04:43:23;49.13;;;19.92;;
70052;SDS011;57398;52.032;4.376;2023-06-22T04:46:11;53.92;;;19.88;;
70052;SDS011;57398;52.032;4.376;2023-06-22T04:48:59;52.97;;;20.20;;
70052;SDS011;57398;52.032;4.376;2023-06-22T04:51:49;47.85;;;18.90;;
70052;SDS011;57398;52.032;4.376;2023-06-22T04:54:39;51.97;;;19.83;;
70052;SDS011;57398;52.032;4.376;2023-06-22T04:57:34;46.50;;;20.10;;
70052;SDS011;57398;52.032;4.376;2023-06-22T05:00:22;45.90;;;20.15;;
70052;SDS011;57398;52.032;4.376;2023-06-22T05:03:10;45.42;;;19.95;;
70052;SDS011;57398;52.032;4.376;2023-06-22T05:06:05;46.35;;;19.23;;
70052;SDS011;57398;52.032;4.376;2023-06-22T05:08:56;43.37;;;18.73;;
70052;SDS011;57398;52.032;4.376;2023-06-22T05:11:45;43.25;;;18.90;;
70052;SDS011;57398;52.032;4.376;2023-06-22T05:14:33;44.00;;;19.25;;
70052;SDS011;57398;52.032;4.376;2023-06-22T05:17:21;38.40;;;17.45;;
70052;SDS011;57398;52.032;4.376;2023-06-22T05:20:10;38.05;;;16.65;;
70052;SDS011;57398;52.032;4.376;2023-06-22T05:22:59;36.67;;;17.03;;
70052;SDS011;57398;52.032;4.376;2023-06-22T05:25:49;36.60;;;16.77;;
70052;SDS011;57398;52.032;4.376;2023-06-22T05:28:37;37.70;;;14.93;;
70052;SDS011;57398;52.032;4.376;2023-06-22T05:31:25;32.92;;;14.77;;
70052;SDS011;57398;52.032;4.376;2023-06-22T05:34:14;30.92;;;14.85;;
70052;SDS011;57398;52.032;4.376;2023-06-22T05:37:02;37.70;;;16.17;;
70052;SDS011;57398;52.032;4.376;2023-06-22T05:39:51;35.88;;;15.57;;
70052;SDS011;57398;52.032;4.376;2023-06-22T05:42:42;31.23;;;14.60;;
70052;SDS011;57398;52.032;4.376;2023-06-22T05:45:30;32.88;;;15.13;;
70052;SDS011;57398;52.032;4.376;2023-06-22T05:48:18;31.67;;;15.30;;
70052;SDS011;57398;52.032;4.376;2023-06-22T05:51:06;29.57;;;14.20;;
70052;SDS011;57398;52.032;4.376;2023-06-22T05:53:55;31.02;;;15.07;;
70052;SDS011;57398;52.032;4.376;2023-06-22T05:56:43;34.70;;;14.95;;
70052;SDS011;57398;52.032;4.376;2023-06-22T05:59:32;29.95;;;15.25;;
70052;SDS011;57398;52.032;4.376;2023-06-22T06:02:20;29.65;;;14.15;;
70052;SDS011;57398;52.032;4.376;2023-06-22T06:05:09;27.30;;;13.33;;
70052;SDS011;57398;52.032;4.376;2023-06-22T06:07:59;28.30;;;14.40;;
70052;SDS011;57398;52.032;4.376;2023-06-22T06:10:48;31.33;;;14.13;;
70052;SDS011;57398;52.032;4.376;2023-06-22T06:13:36;25.85;;;13.43;;
70052;SDS011;57398;52.032;4.376;2023-06-22T06:16:26;27.30;;;13.10;;
70052;SDS011;57398;52.032;4.376;2023-06-22T06:19:14;28.63;;;13.33;;
70052;SDS011;57398;52.032;4.376;2023-06-22T06:22:03;25.88;;;12.63;;
70052;SDS011;57398;52.032;4.376;2023-06-22T06:24:51;25.08;;;12.20;;
70052;SDS011;57398;52.032;4.376;2023-06-22T06:27:39;27.30;;;13.68;;
70052;SDS011;57398;52.032;4.376;2023-06-22T06:30:28;24.58;;;12.68;;
70052;SDS011;57398;52.032;4.376;2023-06-22T06:33:44;24.77;;;12.87;;
70052;SDS011;57398;52.032;4.376;2023-06-22T06:36:32;27.25;;;13.10;;
70052;SDS011;57398;52.032;4.376;2023-06-22T06:39:20;26.98;;;13.48;;
70052;SDS011;57398;52.032;4.376;2023-06-22T06:42:09;28.67;;;14.10;;
70052;SDS011;57398;52.032;4.376;2023-06-22T06:44:57;24.98;;;13.13;;
70052;SDS011;57398;52.032;4.376;2023-06-22T06:47:46;27.03;;;14.10;;
70052;SDS011;57398;52.032;4.376;2023-06-22T06:50:36;28.08;;;14.68;;
70052;SDS011;57398;52.032;4.376;2023-06-22T06:53:24;26.05;;;13.00;;
70052;SDS011;57398;52.032;4.376;2023-06-22T06:56:12;26.25;;;13.02;;
70052;SDS011;57398;52.032;4.376;2023-06-22T06:59:00;26.10;;;13.18;;
70052;SDS011;57398;52.032;4.376;2023-06-22T07:01:49;25.77;;;12.43;;
70052;SDS011;57398;52.032;4.376;2023-06-22T07:04:37;23.42;;;12.30;;
70052;SDS011;57398;52.032;4.376;2023-06-22T07:07:27;24.63;;;12.68;;
70052;SDS011;57398;52.032;4.376;2023-06-22T07:10:15;23.10;;;11.85;;
70052;SDS011;57398;52.032;4.376;2023-06-22T07:13:03;20.35;;;11.18;;
70052;SDS011;57398;52.032;4.376;2023-06-22T07:15:52;22.33;;;11.60;;
70052;SDS011;57398;52.032;4.376;2023-06-22T07:18:40;21.77;;;11.60;;
70052;SDS011;57398;52.032;4.376;2023-06-22T07:21:28;20.38;;;11.00;;
70052;SDS011;57398;52.032;4.376;2023-06-22T07:24:18;21.08;;;10.38;;
70052;SDS011;57398;52.032;4.376;2023-06-22T07:27:07;17.40;;;10.07;;
70052;SDS011;57398;52.032;4.376;2023-06-22T07:29:57;18.87;;;9.23;;
70052;SDS011;57398;52.032;4.376;2023-06-22T07:32:46;16.20;;;8.70;;
70052;SDS011;57398;52.032;4.376;2023-06-22T07:35:34;17.55;;;8.45;;
70052;SDS011;57398;52.032;4.376;2023-06-22T07:38:22;15.55;;;7.88;;
70052;SDS011;57398;52.032;4.376;2023-06-22T07:41:12;16.30;;;7.97;;
70052;SDS011;57398;52.032;4.376;2023-06-22T07:44:01;15.73;;;8.27;;
70052;SDS011;57398;52.032;4.376;2023-06-22T07:46:50;13.10;;;7.57;;
70052;SDS011;57398;52.032;4.376;2023-06-22T07:49:38;14.20;;;7.45;;
70052;SDS011;57398;52.032;4.376;2023-06-22T07:52:26;14.35;;;6.90;;
70052;SDS011;57398;52.032;4.376;2023-06-22T07:55:15;15.18;;;7.70;;
70052;SDS011;57398;52.032;4.376;2023-06-22T07:58:05;13.57;;;7.60;;
70052;SDS011;57398;52.032;4.376;2023-06-22T08:00:53;13.98;;;7.28;;
70052;SDS011;57398;52.032;4.376;2023-06-22T08:03:41;13.60;;;6.68;;
70052;SDS011;57398;52.032;4.376;2023-06-22T08:06:29;11.90;;;6.22;;
70052;SDS011;57398;52.032;4.376;2023-06-22T08:09:17;11.45;;;6.00;;
70052;SDS011;57398;52.032;4.376;2023-06-22T08:12:06;10.20;;;5.97;;
70052;SDS011;57398;52.032;4.376;2023-06-22T08:14:56;10.55;;;5.68;;
70052;SDS011;57398;52.032;4.376;2023-06-22T08:17:44;9.30;;;4.50;;
70052;SDS011;57398;52.032;4.376;2023-06-22T08:20:33;8.95;;;4.55;;
70052;SDS011;57398;52.032;4.376;2023-06-22T08:23:21;8.35;;;4.13;;
70052;SDS011;57398;52.032;4.376;2023-06-22T08:26:09;7.63;;;3.90;;
70052;SDS011;57398;52.032;4.376;2023-06-22T08:28:57;8.20;;;3.80;;
70052;SDS011;57398;52.032;4.376;2023-06-22T08:31:47;7.53;;;3.92;;
70052;SDS011;57398;52.032;4.376;2023-06-22T08:34:35;8.73;;;4.20;;
70052;SDS011;57398;52.032;4.376;2023-06-22T08:37:24;9.18;;;4.50;;
70052;SDS011;57398;52.032;4.376;2023-06-22T08:40:16;9.88;;;4.80;;
70052;SDS011;57398;52.032;4.376;2023-06-22T08:43:06;8.93;;;4.30;;
70052;SDS011;57398;52.032;4.376;2023-06-22T08:45:54;9.50;;;4.43;;
70052;SDS011;57398;52.032;4.376;2023-06-22T08:48:43;9.65;;;5.10;;
70052;SDS011;57398;52.032;4.376;2023-06-22T08:51:32;8.50;;;4.28;;
70052;SDS011;57398;52.032;4.376;2023-06-22T08:54:20;7.78;;;3.42;;
70052;SDS011;57398;52.032;4.376;2023-06-22T08:57:08;6.77;;;3.10;;
70052;SDS011;57398;52.032;4.376;2023-06-22T08:59:56;7.53;;;3.40;;
70052;SDS011;57398;52.032;4.376;2023-06-22T09:02:46;6.57;;;3.15;;
70052;SDS011;57398;52.032;4.376;2023-06-22T09:05:37;7.45;;;3.53;;
70052;SDS011;57398;52.032;4.376;2023-06-22T09:08:26;6.53;;;3.30;;
70052;SDS011;57398;52.032;4.376;2023-06-22T09:11:14;6.77;;;2.87;;
70052;SDS011;57398;52.032;4.376;2023-06-22T09:14:02;5.78;;;2.72;;
70052;SDS011;57398;52.032;4.376;2023-06-22T09:16:50;6.43;;;3.05;;
70052;SDS011;57398;52.032;4.376;2023-06-22T09:19:38;7.13;;;3.22;;
70052;SDS011;57398;52.032;4.376;2023-06-22T09:22:29;8.57;;;4.28;;
70052;SDS011;57398;52.032;4.376;2023-06-22T09:25:17;7.80;;;3.93;;
70052;SDS011;57398;52.032;4.376;2023-06-22T09:28:07;8.93;;;5.32;;
70052;SDS011;57398;52.032;4.376;2023-06-22T09:30:55;10.02;;;5.60;;
70052;SDS011;57398;52.032;4.376;2023-06-22T09:33:45;11.38;;;6.50;;
70052;SDS011;57398;52.032;4.376;2023-06-22T09:36:34;12.63;;;7.47;;
70052;SDS011;57398;52.032;4.376;2023-06-22T09:39:24;10.57;;;5.93;;
70052;SDS011;57398;52.032;4.376;2023-06-22T09:42:16;9.85;;;5.50;;
70052;SDS011;57398;52.032;4.376;2023-06-22T09:45:04;14.23;;;8.63;;
70052;SDS011;57398;52.032;4.376;2023-06-22T09:47:53;11.02;;;6.63;;
70052;SDS011;57398;52.032;4.376;2023-06-22T09:50:41;9.75;;;5.68;;
70052;SDS011;57398;52.032;4.376;2023-06-22T09:53:30;10.67;;;6.23;;
70052;SDS011;57398;52.032;4.376;2023-06-22T09:56:19;13.93;;;8.85;;
70052;SDS011;57398;52.032;4.376;2023-06-22T09:59:08;12.30;;;7.25;;
70052;SDS011;57398;52.032;4.376;2023-06-22T10:02:04;12.88;;;7.00;;
70052;SDS011;57398;52.032;4.376;2023-06-22T10:04:53;10.40;;;5.78;;
70052;SDS011;57398;52.032;4.376;2023-06-22T10:07:41;15.80;;;8.23;;
70052;SDS011;57398;52.032;4.376;2023-06-22T10:10:31;14.20;;;8.43;;
70052;SDS011;57398;52.032;4.376;2023-06-22T10:13:20;14.07;;;7.97;;
70052;SDS011;57398;52.032;4.376;2023-06-22T10:16:09;12.68;;;7.28;;
70052;SDS011;57398;52.032;4.376;2023-06-22T10:18:57;12.95;;;6.90;;
70052;SDS011;57398;52.032;4.376;2023-06-22T10:21:45;11.83;;;6.50;;
70052;SDS011;57398;52.032;4.376;2023-06-22T10:24:33;11.23;;;6.78;;
70052;SDS011;57398;52.032;4.376;2023-06-22T10:27:21;14.75;;;8.52;;
70052;SDS011;57398;52.032;4.376;2023-06-22T10:30:12;11.75;;;6.95;;
70052;SDS011;57398;52.032;4.376;2023-06-22T10:33:01;13.82;;;6.90;;
70052;SDS011;57398;52.032;4.376;2023-06-22T10:35:49;14.87;;;8.53;;
70052;SDS011;57398;52.032;4.376;2023-06-22T10:38:37;14.45;;;9.13;;
70052;SDS011;57398;52.032;4.376;2023-06-22T10:41:26;16.30;;;9.45;;
70052;SDS011;57398;52.032;4.376;2023-06-22T10:44:16;14.18;;;8.55;;
70052;SDS011;57398;52.032;4.376;2023-06-22T10:47:06;13.63;;;8.85;;
70052;SDS011;57398;52.032;4.376;2023-06-22T10:49:55;13.27;;;7.97;;
70052;SDS011;57398;52.032;4.376;2023-06-22T10:52:43;12.10;;;8.02;;
70052;SDS011;57398;52.032;4.376;2023-06-22T10:55:31;14.60;;;9.20;;
70052;SDS011;57398;52.032;4.376;2023-06-22T10:58:37;14.98;;;8.80;;
70052;SDS011;57398;52.032;4.376;2023-06-22T11:01:25;16.05;;;9.13;;
70052;SDS011;57398;52.032;4.376;2023-06-22T11:04:23;14.97;;;9.90;;
70052;SDS011;57398;52.032;4.376;2023-06-22T11:07:11;13.80;;;8.55;;
70052;SDS011;57398;52.032;4.376;2023-06-22T11:10:00;15.75;;;10.15;;
70052;SDS011;57398;52.032;4.376;2023-06-22T11:12:48;19.42;;;11.30;;
70052;SDS011;57398;52.032;4.376;2023-06-22T11:15:36;16.40;;;11.32;;
70052;SDS011;57398;52.032;4.376;2023-06-22T11:18:24;17.50;;;11.77;;
70052;SDS011;57398;52.032;4.376;2023-06-22T11:21:14;15.88;;;11.75;;
70052;SDS011;57398;52.032;4.376;2023-06-22T11:24:02;16.58;;;11.32;;
70052;SDS011;57398;52.032;4.376;2023-06-22T11:26:51;18.20;;;10.85;;
70052;SDS011;57398;52.032;4.376;2023-06-22T11:29:39;21.60;;;11.75;;
70052;SDS011;57398;52.032;4.376;2023-06-22T11:32:27;15.73;;;10.20;;
70052;SDS011;57398;52.032;4.376;2023-06-22T11:35:15;16.67;;;11.50;;
70052;SDS011;57398;52.032;4.376;2023-06-22T11:38:05;17.52;;;11.38;;
70052;SDS011;57398;52.032;4.376;2023-06-22T11:40:54;17.83;;;13.10;;
70052;SDS011;57398;52.032;4.376;2023-06-22T11:43:42;18.30;;;13.35;;
70052;SDS011;57398;52.032;4.376;2023-06-22T11:46:31;19.02;;;12.85;;
70052;SDS011;57398;52.032;4.376;2023-06-22T11:49:21;21.17;;;12.60;;
70052;SDS011;57398;52.032;4.376;2023-06-22T11:52:09;21.27;;;13.57;;
70052;SDS011;57398;52.032;4.376;2023-06-22T11:54:59;21.70;;;12.57;;
70052;SDS011;57398;52.032;4.376;2023-06-22T11:57:54;19.77;;;12.18;;
70052;SDS011;57398;52.032;4.376;2023-06-22T12:00:45;20.23;;;12.35;;
70052;SDS011;57398;52.032;4.376;2023-06-22T12:03:37;21.00;;;11.50;;
70052;SDS011;57398;52.032;4.376;2023-06-22T12:06:26;19.17;;;11.48;;
70052;SDS011;57398;52.032;4.376;2023-06-22T12:09:14;20.52;;;12.13;;
70052;SDS011;57398;52.032;4.376;2023-06-22T12:12:04;18.02;;;10.50;;
70052;SDS011;57398;52.032;4.376;2023-06-22T12:14:53;18.05;;;11.70;;
70052;SDS011;57398;52.032;4.376;2023-06-22T12:17:41;19.93;;;12.23;;
70052;SDS011;57398;52.032;4.376;2023-06-22T12:20:33;17.83;;;11.40;;
70052;SDS011;57398;52.032;4.376;2023-06-22T12:23:21;19.20;;;12.18;;
70052;SDS011;57398;52.032;4.376;2023-06-22T12:26:09;20.80;;;11.73;;
70052;SDS011;57398;52.032;4.376;2023-06-22T12:28:59;18.70;;;11.98;;
70052;SDS011;57398;52.032;4.376;2023-06-22T12:31:47;19.77;;;11.40;;
70052;SDS011;57398;52.032;4.376;2023-06-22T12:34:35;19.35;;;11.38;;
70052;SDS011;57398;52.032;4.376;2023-06-22T12:37:24;20.55;;;12.00;;
70052;SDS011;57398;52.032;4.376;2023-06-22T12:40:12;18.13;;;11.25;;
70052;SDS011;57398;52.032;4.376;2023-06-22T12:43:00;20.60;;;12.32;;
70052;SDS011;57398;52.032;4.376;2023-06-22T12:45:50;20.43;;;10.97;;
70052;SDS011;57398;52.032;4.376;2023-06-22T12:48:40;20.75;;;11.52;;
70052;SDS011;57398;52.032;4.376;2023-06-22T12:51:29;18.17;;;11.60;;
70052;SDS011;57398;52.032;4.376;2023-06-22T12:54:18;20.17;;;11.95;;
70052;SDS011;57398;52.032;4.376;2023-06-22T12:57:06;19.20;;;12.00;;
70052;SDS011;57398;52.032;4.376;2023-06-22T12:59:54;19.37;;;12.00;;
70052;SDS011;57398;52.032;4.376;2023-06-22T13:02:44;20.35;;;12.25;;
70052;SDS011;57398;52.032;4.376;2023-06-22T13:05:32;19.15;;;12.30;;
70052;SDS011;57398;52.032;4.376;2023-06-22T13:08:22;19.90;;;11.60;;
70052;SDS011;57398;52.032;4.376;2023-06-22T13:11:31;17.83;;;10.75;;
70052;SDS011;57398;52.032;4.376;2023-06-22T13:14:19;20.00;;;12.33;;
70052;SDS011;57398;52.032;4.376;2023-06-22T13:17:07;19.63;;;13.07;;
70052;SDS011;57398;52.032;4.376;2023-06-22T13:19:57;22.65;;;13.85;;
70052;SDS011;57398;52.032;4.376;2023-06-22T13:22:45;23.23;;;13.27;;
70052;SDS011;57398;52.032;4.376;2023-06-22T13:25:34;19.40;;;12.27;;
70052;SDS011;57398;52.032;4.376;2023-06-22T13:28:22;19.63;;;13.10;;
70052;SDS011;57398;52.032;4.376;2023-06-22T13:31:14;22.73;;;14.82;;
70052;SDS011;57398;52.032;4.376;2023-06-22T13:34:03;21.98;;;14.73;;
70052;SDS011;57398;52.032;4.376;2023-06-22T13:36:54;24.88;;;15.00;;
70052;SDS011;57398;52.032;4.376;2023-06-22T13:39:42;21.23;;;13.18;;
70052;SDS011;57398;52.032;4.376;2023-06-22T13:42:33;21.57;;;13.43;;
70052;SDS011;57398;52.032;4.376;2023-06-22T13:45:21;21.42;;;13.15;;
70052;SDS011;57398;52.032;4.376;2023-06-22T13:48:10;20.30;;;13.32;;
70052;SDS011;57398;52.032;4.376;2023-06-22T13:50:58;22.13;;;13.20;;
70052;SDS011;57398;52.032;4.376;2023-06-22T13:53:48;22.77;;;13.32;;
70052;SDS011;57398;52.032;4.376;2023-06-22T13:56:36;21.97;;;13.70;;
70052;SDS011;57398;52.032;4.376;2023-06-22T13:59:24;22.92;;;13.60;;
70052;SDS011;57398;52.032;4.376;2023-06-22T14:02:13;22.45;;;12.70;;
70052;SDS011;57398;52.032;4.376;2023-06-22T14:05:01;23.25;;;12.82;;
70052;SDS011;57398;52.032;4.376;2023-06-22T14:07:49;22.58;;;13.55;;
70052;SDS011;57398;52.032;4.376;2023-06-22T14:10:39;21.33;;;12.40;;
70052;SDS011;57398;52.032;4.376;2023-06-22T14:13:27;20.17;;;12.93;;
70052;SDS011;57398;52.032;4.376;2023-06-22T14:16:16;23.75;;;14.20;;
70052;SDS011;57398;52.032;4.376;2023-06-22T14:19:04;20.70;;;13.48;;
70052;SDS011;57398;52.032;4.376;2023-06-22T14:21:52;24.30;;;14.55;;
70052;SDS011;57398;52.032;4.376;2023-06-22T14:24:40;22.83;;;14.43;;
70052;SDS011;57398;52.032;4.376;2023-06-22T14:27:30;24.98;;;15.00;;
70052;SDS011;57398;52.032;4.376;2023-06-22T14:30:18;24.35;;;15.52;;
70052;SDS011;57398;52.032;4.376;2023-06-22T14:33:06;26.05;;;15.27;;
70052;SDS011;57398;52.032;4.376;2023-06-22T14:35:55;24.27;;;15.45;;
70052;SDS011;57398;52.032;4.376;2023-06-22T14:38:43;25.37;;;14.77;;
70052;SDS011;57398;52.032;4.376;2023-06-22T14:41:33;27.77;;;15.77;;
70052;SDS011;57398;52.032;4.376;2023-06-22T14:44:23;22.85;;;15.13;;
70052;SDS011;57398;52.032;4.376;2023-06-22T14:47:11;25.17;;;15.30;;
70052;SDS011;57398;52.032;4.376;2023-06-22T14:49:59;23.80;;;14.43;;
70052;SDS011;57398;52.032;4.376;2023-06-22T14:52:47;23.87;;;14.90;;
70052;SDS011;57398;52.032;4.376;2023-06-22T14:55:36;21.55;;;14.82;;
70052;SDS011;57398;52.032;4.376;2023-06-22T14:58:24;22.42;;;15.05;;
70052;SDS011;57398;52.032;4.376;2023-06-22T15:01:16;22.63;;;14.30;;
70052;SDS011;57398;52.032;4.376;2023-06-22T15:04:05;25.08;;;14.65;;
70052;SDS011;57398;52.032;4.376;2023-06-22T15:06:53;23.07;;;14.23;;
70052;SDS011;57398;52.032;4.376;2023-06-22T15:09:41;26.02;;;15.48;;
70052;SDS011;57398;52.032;4.376;2023-06-22T15:12:32;24.20;;;14.65;;
70052;SDS011;57398;52.032;4.376;2023-06-22T15:15:20;22.45;;;14.07;;
70052;SDS011;57398;52.032;4.376;2023-06-22T15:18:10;23.13;;;14.10;;
70052;SDS011;57398;52.032;4.376;2023-06-22T15:20:58;25.00;;;14.90;;
70052;SDS011;57398;52.032;4.376;2023-06-22T15:23:48;24.20;;;15.10;;
70052;SDS011;57398;52.032;4.376;2023-06-22T15:26:36;29.27;;;15.95;;
70052;SDS011;57398;52.032;4.376;2023-06-22T15:29:25;25.42;;;15.63;;
70052;SDS011;57398;52.032;4.376;2023-06-22T15:32:17;24.48;;;13.95;;
70052;SDS011;57398;52.032;4.376;2023-06-22T15:35:06;20.70;;;12.93;;
70052;SDS011;57398;52.032;4.376;2023-06-22T15:37:55;22.88;;;13.52;;
70052;SDS011;57398;52.032;4.376;2023-06-22T15:40:43;18.23;;;12.13;;
70052;SDS011;57398;52.032;4.376;2023-06-22T15:43:32;21.88;;;13.55;;
70052;SDS011;57398;52.032;4.376;2023-06-22T15:46:21;21.10;;;12.90;;
70052;SDS011;57398;52.032;4.376;2023-06-22T15:49:09;20.97;;;12.37;;
70052;SDS011;57398;52.032;4.376;2023-06-22T15:52:08;20.85;;;11.80;;
70052;SDS011;57398;52.032;4.376;2023-06-22T15:58:47;18.98;;;10.10;;
70052;SDS011;57398;52.032;4.376;2023-06-22T16:02:02;18.95;;;10.50;;
70052;SDS011;57398;52.032;4.376;2023-06-22T16:04:54;15.87;;;9.67;;
70052;SDS011;57398;52.032;4.376;2023-06-22T16:07:44;16.50;;;9.68;;
70052;SDS011;57398;52.032;4.376;2023-06-22T16:10:33;17.40;;;9.40;;
70052;SDS011;57398;52.032;4.376;2023-06-22T16:13:21;14.82;;;8.20;;
70052;SDS011;57398;52.032;4.376;2023-06-22T16:16:09;14.98;;;8.30;;
70052;SDS011;57398;52.032;4.376;2023-06-22T16:18:58;15.32;;;9.05;;
70052;SDS011;57398;52.032;4.376;2023-06-22T16:21:46;15.80;;;8.70;;
70052;SDS011;57398;52.032;4.376;2023-06-22T16:24:36;16.00;;;8.40;;
70052;SDS011;57398;52.032;4.376;2023-06-22T16:27:24;15.63;;;8.63;;
70052;SDS011;57398;52.032;4.376;2023-06-22T16:30:14;14.00;;;8.07;;
70052;SDS011;57398;52.032;4.376;2023-06-22T16:33:03;16.20;;;7.93;;
70052;SDS011;57398;52.032;4.376;2023-06-22T16:35:51;15.97;;;8.20;;
70052;SDS011;57398;52.032;4.376;2023-06-22T16:38:40;12.00;;;7.63;;